Time;durP1;ratioP1;P1;durP2;ratioP2;P2;SDS_P1;SDS_P2;PMS_P1;PMS_P2;Temp;Humidity;BMP_temperature;BMP_pressure;BME280_temperature;BME280_humidity;BME280_pressure;Samples;Min_cycle;Max_cycle;Signal;HPM_P1;HPM_P2
2023/02/07 00:00:18;;;;;;;25.63;11.90;;;-3.30;99.90;;;;;;5054355;28;20166;-77
2023/02/07 00:02:47;;;;;;;21.80;11.95;;;-3.30;99.90;;;;;;5043041;28;20025;-78
2023/02/07 00:05:14;;;;;;;22.60;12.23;;;-3.30;99.90;;;;;;5047815;28;20110;-77
2023/02/07 00:07:40;;;;;;;21.90;11.70;;;-3.30;99.90;;;;;;5054251;28;20025;-78
2023/02/07 00:10:07;;;;;;;23.40;11.75;;;-3.30;99.90;;;;;;5051964;28;20397;-78
2023/02/07 00:12:33;;;;;;;20.65;11.40;;;-3.40;99.90;;;;;;5053380;28;20028;-78
2023/02/07 00:14:59;;;;;;;22.80;10.48;;;-3.40;99.90;;;;;;5047806;28;20017;-78
2023/02/07 00:17:27;;;;;;;23.48;11.95;;;-3.50;99.90;;;;;;5053233;28;20485;-78
2023/02/07 00:19:53;;;;;;;23.30;11.80;;;-3.50;99.90;;;;;;5052017;28;20484;-77
2023/02/07 00:22:19;;;;;;;27.02;12.20;;;-3.50;99.90;;;;;;5052914;28;20031;-79
2023/02/07 00:24:45;;;;;;;19.95;12.13;;;-3.50;99.90;;;;;;5052156;28;20037;-78
2023/02/07 00:27:11;;;;;;;19.52;10.80;;;-3.40;99.90;;;;;;5054239;28;20038;-78
2023/02/07 00:29:37;;;;;;;24.63;11.15;;;-3.50;99.90;;;;;;5051157;28;20040;-78
2023/02/07 00:32:03;;;;;;;21.73;11.07;;;-3.50;99.90;;;;;;5049103;28;20079;-78
2023/02/07 00:34:30;;;;;;;21.45;11.32;;;-3.50;99.90;;;;;;5054256;28;20031;-78
2023/02/07 00:36:56;;;;;;;25.38;12.32;;;-3.60;99.90;;;;;;5049697;28;20036;-79
2023/02/07 00:39:22;;;;;;;20.63;10.98;;;-3.60;99.90;;;;;;5051760;28;20025;-77
2023/02/07 00:41:48;;;;;;;20.70;10.93;;;-3.70;99.90;;;;;;5053770;28;20075;-78
2023/02/07 00:44:14;;;;;;;22.13;10.90;;;-3.60;99.90;;;;;;5036210;28;20021;-78
2023/02/07 00:46:40;;;;;;;26.13;11.80;;;-3.70;99.90;;;;;;5052090;28;20028;-78
2023/02/07 00:49:06;;;;;;;20.50;11.30;;;-3.80;99.90;;;;;;5053548;28;20025;-79
2023/02/07 00:51:32;;;;;;;22.00;11.52;;;-3.80;99.90;;;;;;5047868;28;20029;-78
2023/02/07 00:53:59;;;;;;;20.23;10.70;;;-3.90;99.90;;;;;;5054328;28;20047;-79
2023/02/07 00:56:28;;;;;;;22.02;11.85;;;-4.00;99.90;;;;;;5052257;28;20495;-78
2023/02/07 00:58:56;;;;;;;23.67;11.55;;;-3.90;99.90;;;;;;5048993;28;20024;-77
2023/02/07 01:01:23;;;;;;;22.90;10.98;;;-4.00;99.90;;;;;;5047304;28;20233;-78
2023/02/07 01:03:49;;;;;;;18.25;10.85;;;-3.90;99.90;;;;;;5044565;28;20065;-78
2023/02/07 01:06:15;;;;;;;19.33;11.05;;;-4.00;99.90;;;;;;5041630;28;20036;-78
2023/02/07 01:08:41;;;;;;;22.60;11.23;;;-4.10;99.90;;;;;;5052316;28;20040;-78
2023/02/07 01:11:10;;;;;;;23.00;11.32;;;-4.20;99.90;;;;;;5052939;28;20040;-78
2023/02/07 01:13:37;;;;;;;19.00;9.80;;;-4.20;99.90;;;;;;5052409;28;20128;-78
2023/02/07 01:16:03;;;;;;;19.30;10.38;;;-4.30;99.90;;;;;;5048198;28;20096;-77
2023/02/07 01:18:29;;;;;;;22.17;11.60;;;-4.40;99.90;;;;;;5051273;28;20086;-77
2023/02/07 01:20:56;;;;;;;22.25;11.63;;;-4.40;99.90;;;;;;5055785;28;20061;-77
2023/02/07 01:23:21;;;;;;;21.65;11.60;;;-4.40;99.90;;;;;;5049479;28;20029;-77
2023/02/07 01:25:47;;;;;;;19.98;10.55;;;-4.40;99.90;;;;;;5044515;28;20464;-78
2023/02/07 01:28:14;;;;;;;25.02;11.43;;;-4.50;99.90;;;;;;5053166;28;20072;-77
2023/02/07 01:30:42;;;;;;;23.33;11.73;;;-4.50;99.90;;;;;;5041622;28;20029;-77
2023/02/07 01:33:08;;;;;;;27.27;11.57;;;-4.50;99.90;;;;;;5046185;28;20492;-78
2023/02/07 01:35:34;;;;;;;23.13;11.38;;;-4.60;99.90;;;;;;5049579;28;20028;-77
2023/02/07 01:38:01;;;;;;;25.67;11.48;;;-4.60;99.90;;;;;;5051611;28;20498;-78
2023/02/07 01:40:28;;;;;;;21.15;11.68;;;-4.60;99.90;;;;;;5052105;28;20069;-79
2023/02/07 01:42:56;;;;;;;22.80;12.82;;;-4.60;99.90;;;;;;5051650;28;20363;-78
2023/02/07 01:45:42;;;;;;;24.80;12.73;;;-4.50;99.90;;;;;;5049103;28;20104;-79
2023/02/07 01:48:18;;;;;;;22.13;11.80;;;-4.50;99.90;;;;;;5045577;28;20840;-78
2023/02/07 01:50:48;;;;;;;21.38;11.30;;;-4.60;99.90;;;;;;5051561;28;20086;-78
2023/02/07 01:53:16;;;;;;;23.35;10.75;;;-4.70;99.90;;;;;;5048928;28;20047;-78
2023/02/07 01:55:44;;;;;;;26.23;12.38;;;-4.70;99.90;;;;;;5033997;28;20033;-78
2023/02/07 01:58:10;;;;;;;21.92;11.52;;;-4.80;99.90;;;;;;5048542;28;20021;-78
2023/02/07 02:00:36;;;;;;;21.52;11.20;;;-4.80;99.90;;;;;;5043063;28;20039;-78
2023/02/07 02:03:03;;;;;;;25.20;12.00;;;-4.80;99.90;;;;;;5056609;28;20099;-78
2023/02/07 02:05:31;;;;;;;23.80;11.77;;;-4.80;99.90;;;;;;5053080;28;20028;-79
2023/02/07 02:07:57;;;;;;;25.38;11.88;;;-4.80;99.90;;;;;;5053639;28;20037;-78
2023/02/07 02:10:34;;;;;;;20.13;11.73;;;-4.80;99.90;;;;;;5053550;28;20120;-79
2023/02/07 02:13:10;;;;;;;23.52;11.30;;;-4.80;99.90;;;;;;5054670;28;20036;-78
2023/02/07 02:15:51;;;;;;;24.67;12.40;;;-4.80;99.90;;;;;;5069391;28;20055;-78
2023/02/07 02:18:38;;;;;;;19.00;10.55;;;-4.80;99.90;;;;;;5033953;28;20037;-78
2023/02/07 02:21:32;;;;;;;30.02;12.50;;;-4.90;99.90;;;;;;5049170;28;20071;-78
2023/02/07 02:24:35;;;;;;;23.05;12.00;;;-4.90;99.90;;;;;;5048863;28;20021;-78
2023/02/07 02:27:26;;;;;;;22.65;11.52;;;-4.90;99.90;;;;;;5053288;28;20067;-78
2023/02/07 02:30:06;;;;;;;23.55;12.43;;;-4.90;99.90;;;;;;5049398;28;20473;-79
2023/02/07 02:32:56;;;;;;;23.50;12.45;;;-4.90;99.90;;;;;;5044146;28;20025;-78
2023/02/07 02:35:42;;;;;;;22.55;11.63;;;-5.00;99.90;;;;;;5069805;28;20074;-78
2023/02/07 02:38:44;;;;;;;19.02;10.90;;;-5.00;99.90;;;;;;5053940;28;20400;-78
2023/02/07 02:41:17;;;;;;;24.40;12.23;;;-5.10;99.90;;;;;;5026034;28;20033;-79
2023/02/07 02:43:56;;;;;;;24.70;11.40;;;-5.10;99.90;;;;;;5057872;28;20028;-78
2023/02/07 02:46:35;;;;;;;25.92;12.32;;;-5.10;99.90;;;;;;5057698;28;20028;-80
2023/02/07 02:49:02;;;;;;;21.90;11.23;;;-5.10;99.90;;;;;;5056520;28;20480;-78
2023/02/07 02:51:29;;;;;;;24.42;11.23;;;-5.20;99.90;;;;;;5087442;28;20091;-79
2023/02/07 02:53:57;;;;;;;19.30;10.68;;;-5.20;99.90;;;;;;5057476;28;20032;-78
2023/02/07 02:56:40;;;;;;;21.85;10.95;;;-5.20;99.90;;;;;;5057738;28;20025;-78
2023/02/07 02:59:25;;;;;;;23.80;11.25;;;-5.20;99.90;;;;;;5056571;28;20063;-80
2023/02/07 03:02:11;;;;;;;20.63;10.63;;;-5.30;99.90;;;;;;5050872;28;20081;-78
2023/02/07 03:04:43;;;;;;;22.00;12.07;;;-5.30;99.90;;;;;;5050923;28;20032;-78
2023/02/07 03:07:19;;;;;;;23.45;11.50;;;-5.30;99.90;;;;;;5050168;28;20036;-78
2023/02/07 03:09:56;;;;;;;20.77;11.13;;;-5.40;99.90;;;;;;5052537;28;20516;-78
2023/02/07 03:12:26;;;;;;;23.65;12.10;;;-5.40;99.90;;;;;;5050207;28;20033;-78
2023/02/07 03:15:05;;;;;;;24.55;11.98;;;-5.40;99.90;;;;;;5050834;28;20060;-78
2023/02/07 03:17:48;;;;;;;20.48;11.20;;;-5.40;99.90;;;;;;5068417;28;20661;-78
2023/02/07 03:20:29;;;;;;;23.45;11.23;;;-5.40;99.90;;;;;;5050469;28;20053;-78
2023/02/07 03:22:59;;;;;;;21.75;11.50;;;-5.40;99.90;;;;;;5029083;28;20029;-80
2023/02/07 03:25:26;;;;;;;25.50;12.05;;;-5.40;99.90;;;;;;5054405;28;20025;-80
2023/02/07 03:27:54;;;;;;;23.23;12.27;;;-5.50;99.90;;;;;;5031007;28;20041;-79
2023/02/07 03:30:23;;;;;;;21.00;10.98;;;-5.50;99.90;;;;;;5053726;28;20481;-78
2023/02/07 03:32:58;;;;;;;23.58;11.68;;;-5.60;99.90;;;;;;5046553;28;20405;-78
2023/02/07 03:35:28;;;;;;;25.58;12.48;;;-5.60;99.90;;;;;;5055828;28;20051;-79
2023/02/07 03:37:59;;;;;;;23.20;11.18;;;-5.70;99.90;;;;;;5055164;28;20029;-80
2023/02/07 03:40:32;;;;;;;23.98;11.70;;;-5.70;99.90;;;;;;5056266;28;20499;-79
2023/02/07 03:43:13;;;;;;;21.52;11.90;;;-5.60;99.90;;;;;;5056484;28;20072;-79
2023/02/07 03:45:39;;;;;;;27.02;12.10;;;-5.60;99.90;;;;;;5054503;28;20037;-79
2023/02/07 03:48:05;;;;;;;23.83;10.90;;;-5.50;99.90;;;;;;5051807;28;20032;-78
2023/02/07 03:50:31;;;;;;;20.92;11.23;;;-5.50;99.90;;;;;;5052607;28;20071;-78
2023/02/07 03:52:57;;;;;;;25.00;11.05;;;-5.60;99.90;;;;;;5052090;28;20037;-78
2023/02/07 03:55:23;;;;;;;23.15;11.55;;;-5.70;99.90;;;;;;5051578;28;20044;-78
2023/02/07 03:57:48;;;;;;;25.20;11.82;;;-5.70;99.90;;;;;;5032673;28;20033;-78
2023/02/07 04:00:14;;;;;;;22.10;10.77;;;-5.80;99.90;;;;;;5050342;28;20017;-78
2023/02/07 04:02:41;;;;;;;22.02;11.07;;;-5.80;99.90;;;;;;5049526;28;20064;-78
2023/02/07 04:05:07;;;;;;;24.73;11.73;;;-5.80;99.90;;;;;;5050978;28;20416;-78
2023/02/07 04:07:33;;;;;;;20.70;10.95;;;-5.80;99.90;;;;;;5049530;28;20713;-78
2023/02/07 04:09:59;;;;;;;21.08;11.10;;;-5.80;99.90;;;;;;5051580;28;20091;-78
2023/02/07 04:12:31;;;;;;;26.73;12.77;;;-5.80;99.90;;;;;;5050382;28;20179;-78
2023/02/07 04:15:01;;;;;;;21.55;11.50;;;-5.90;99.90;;;;;;5047615;28;20037;-79
2023/02/07 04:17:27;;;;;;;24.85;11.65;;;-5.90;99.90;;;;;;5053187;28;20033;-78
2023/02/07 04:19:53;;;;;;;22.08;11.43;;;-5.90;99.90;;;;;;5050469;28;20040;-78
2023/02/07 04:22:19;;;;;;;26.75;13.30;;;-6.00;99.90;;;;;;5051945;28;20025;-78
2023/02/07 04:24:45;;;;;;;27.50;12.07;;;-6.00;99.90;;;;;;5050375;28;20031;-78
2023/02/07 04:27:11;;;;;;;24.10;12.07;;;-6.00;99.90;;;;;;5052450;28;20033;-78
2023/02/07 04:29:37;;;;;;;21.60;11.60;;;-6.00;99.90;;;;;;5051497;28;20032;-78
2023/02/07 04:32:03;;;;;;;21.20;11.63;;;-6.00;99.90;;;;;;5050836;28;20448;-78
2023/02/07 04:34:29;;;;;;;25.25;11.63;;;-6.00;99.90;;;;;;5043901;28;20048;-78
2023/02/07 04:36:55;;;;;;;27.67;12.75;;;-6.00;99.90;;;;;;5047568;28;20485;-80
2023/02/07 04:39:21;;;;;;;23.17;11.82;;;-6.00;99.90;;;;;;5053547;28;20052;-79
2023/02/07 04:41:46;;;;;;;22.90;11.45;;;-6.00;99.90;;;;;;5054213;28;20029;-80
2023/02/07 04:44:12;;;;;;;23.25;12.35;;;-6.00;99.90;;;;;;5052313;28;20033;-78
2023/02/07 04:46:38;;;;;;;20.55;11.35;;;-6.00;99.90;;;;;;5051378;28;20037;-78
2023/02/07 04:49:04;;;;;;;23.63;12.15;;;-6.00;99.90;;;;;;5049419;28;20032;-79
2023/02/07 04:51:31;;;;;;;22.65;11.98;;;-6.00;99.90;;;;;;5051302;28;20083;-79
2023/02/07 04:53:57;;;;;;;23.58;11.32;;;-6.10;99.90;;;;;;5052354;28;20032;-80
2023/02/07 04:56:23;;;;;;;22.60;11.77;;;-6.10;99.90;;;;;;5055547;28;20104;-80
2023/02/07 04:58:49;;;;;;;22.90;10.68;;;-6.10;99.90;;;;;;5042210;28;20571;-80
2023/02/07 05:01:15;;;;;;;18.85;10.88;;;-6.10;99.90;;;;;;5026944;28;20034;-81
2023/02/07 05:03:41;;;;;;;24.25;12.32;;;-6.10;99.90;;;;;;5052733;28;20097;-80
2023/02/07 05:06:07;;;;;;;20.75;10.82;;;-6.20;99.90;;;;;;5051319;28;20090;-80
2023/02/07 05:08:34;;;;;;;22.40;12.50;;;-6.20;99.90;;;;;;5055131;28;20025;-80
2023/02/07 05:11:01;;;;;;;21.60;10.65;;;-6.20;99.90;;;;;;5052756;28;20059;-78
2023/02/07 05:13:27;;;;;;;22.38;11.52;;;-6.20;99.90;;;;;;5050271;28;20037;-78
2023/02/07 05:15:53;;;;;;;25.42;12.35;;;-6.20;99.90;;;;;;5048257;28;20031;-78
2023/02/07 05:18:19;;;;;;;23.65;12.18;;;-6.20;99.90;;;;;;5050279;28;20077;-78
2023/02/07 05:20:46;;;;;;;26.65;11.93;;;-6.20;99.90;;;;;;5045745;28;20033;-79
2023/02/07 05:23:12;;;;;;;22.65;10.98;;;-6.20;99.90;;;;;;5048298;28;20036;-79
2023/02/07 05:25:40;;;;;;;22.00;11.98;;;-6.20;99.90;;;;;;5051815;28;20397;-78
2023/02/07 05:28:06;;;;;;;22.48;11.77;;;-6.20;99.90;;;;;;5050601;28;20028;-78
2023/02/07 05:30:32;;;;;;;24.20;12.10;;;-6.20;99.90;;;;;;5049805;28;20043;-78
2023/02/07 05:33:07;;;;;;;27.30;12.98;;;-6.20;99.90;;;;;;5052424;28;20025;-78
2023/02/07 05:35:35;;;;;;;23.50;12.10;;;-6.20;99.90;;;;;;5049909;28;20029;-78
2023/02/07 05:38:03;;;;;;;24.77;12.25;;;-6.20;99.90;;;;;;5049774;28;20031;-78
2023/02/07 05:40:29;;;;;;;24.17;12.80;;;-6.20;99.90;;;;;;5047626;28;20048;-78
2023/02/07 05:42:55;;;;;;;27.42;12.50;;;-6.30;99.90;;;;;;5049365;28;20032;-78
2023/02/07 05:45:21;;;;;;;25.88;13.00;;;-6.30;99.90;;;;;;5063349;28;20060;-78
2023/02/07 05:47:46;;;;;;;24.77;11.98;;;-6.30;99.90;;;;;;5050637;28;20033;-78
2023/02/07 05:50:13;;;;;;;25.17;12.75;;;-6.30;99.90;;;;;;5049644;28;20044;-78
2023/02/07 05:52:38;;;;;;;21.50;11.55;;;-6.40;99.90;;;;;;5048092;28;20068;-78
2023/02/07 05:55:05;;;;;;;26.73;13.00;;;-6.40;99.90;;;;;;5048897;28;20517;-78
2023/02/07 05:57:30;;;;;;;28.75;14.88;;;-6.30;99.90;;;;;;5047374;28;20040;-78
2023/02/07 05:59:57;;;;;;;29.42;15.35;;;-6.40;99.90;;;;;;5050893;28;20393;-77
2023/02/07 06:02:23;;;;;;;27.90;13.20;;;-6.40;99.90;;;;;;5048123;28;20075;-78
2023/02/07 06:04:49;;;;;;;23.95;12.00;;;-6.40;99.90;;;;;;5049896;28;20025;-78
2023/02/07 06:07:14;;;;;;;23.98;12.63;;;-6.40;99.90;;;;;;5048997;28;20025;-78
2023/02/07 06:09:40;;;;;;;27.65;13.88;;;-6.40;99.90;;;;;;5048671;28;20029;-80
2023/02/07 06:12:06;;;;;;;26.92;13.68;;;-6.40;99.90;;;;;;5053746;28;20021;-78
2023/02/07 06:14:32;;;;;;;34.15;16.58;;;-6.40;99.90;;;;;;5054494;28;20043;-77
2023/02/07 06:16:57;;;;;;;34.58;17.42;;;-6.40;99.90;;;;;;5052481;28;20048;-79
2023/02/07 06:19:23;;;;;;;40.63;20.60;;;-6.40;99.90;;;;;;5053822;28;20052;-82
2023/02/07 06:21:49;;;;;;;37.33;18.75;;;-6.40;99.90;;;;;;5051803;28;20028;-79
2023/02/07 06:24:15;;;;;;;37.88;18.27;;;-6.50;99.90;;;;;;5050929;28;20033;-78
2023/02/07 06:26:41;;;;;;;40.63;19.45;;;-6.50;99.90;;;;;;5035756;28;20029;-79
2023/02/07 06:29:07;;;;;;;57.13;28.85;;;-6.60;99.90;;;;;;5051918;28;20044;-79
2023/02/07 06:31:33;;;;;;;65.47;35.58;;;-6.60;99.90;;;;;;5044954;28;20029;-78
2023/02/07 06:33:59;;;;;;;62.03;32.03;;;-6.50;99.90;;;;;;5058493;28;20124;-79
2023/02/07 06:36:25;;;;;;;50.25;26.58;;;-6.60;99.90;;;;;;5036809;28;20036;-76
2023/02/07 06:38:54;;;;;;;52.47;26.75;;;-6.60;99.90;;;;;;5055479;28;20033;-77
2023/02/07 06:41:21;;;;;;;47.83;24.58;;;-6.60;99.90;;;;;;5052187;28;20051;-79
2023/02/07 06:43:47;;;;;;;37.53;19.85;;;-6.60;99.90;;;;;;5045441;28;20055;-79
2023/02/07 06:46:13;;;;;;;39.85;19.58;;;-6.60;99.90;;;;;;5053198;28;20657;-78
2023/02/07 06:48:39;;;;;;;40.03;18.85;;;-6.70;99.90;;;;;;5051751;28;20580;-80
2023/02/07 06:51:05;;;;;;;40.35;19.25;;;-6.70;99.90;;;;;;5052315;28;20021;-78
2023/02/07 06:53:31;;;;;;;30.55;16.42;;;-6.60;99.90;;;;;;5049542;28;20060;-80
2023/02/07 06:55:58;;;;;;;33.70;15.60;;;-6.60;99.90;;;;;;5051644;28;20022;-79
2023/02/07 06:58:24;;;;;;;31.52;14.98;;;-6.60;99.90;;;;;;5047956;28;20058;-79
2023/02/07 07:00:49;;;;;;;28.48;14.40;;;-6.60;99.90;;;;;;5055035;28;20021;-80
2023/02/07 07:03:16;;;;;;;30.45;15.75;;;-6.60;99.90;;;;;;5054045;28;20478;-79
2023/02/07 07:05:43;;;;;;;29.00;14.50;;;-6.60;99.90;;;;;;5052413;28;20078;-80
2023/02/07 07:08:09;;;;;;;27.08;13.07;;;-6.60;99.90;;;;;;5073103;28;20116;-80
2023/02/07 07:10:35;;;;;;;27.35;13.18;;;-6.60;99.90;;;;;;5056524;28;20358;-78
2023/02/07 07:13:01;;;;;;;27.88;12.68;;;-6.50;99.90;;;;;;5053709;28;20028;-80
2023/02/07 07:15:27;;;;;;;22.63;12.27;;;-6.60;99.90;;;;;;5054812;28;20029;-79
2023/02/07 07:17:53;;;;;;;23.27;12.70;;;-6.50;99.90;;;;;;5054551;28;20204;-78
2023/02/07 07:20:19;;;;;;;24.85;11.70;;;-6.50;99.90;;;;;;5062223;28;20069;-80
2023/02/07 07:22:45;;;;;;;23.73;11.80;;;-6.50;99.90;;;;;;5060006;28;20038;-81
2023/02/07 07:25:11;;;;;;;23.50;11.98;;;-6.40;99.90;;;;;;5039265;28;20036;-78
2023/02/07 07:27:37;;;;;;;24.98;11.45;;;-6.40;99.90;;;;;;5056083;28;20036;-79
2023/02/07 07:30:03;;;;;;;21.35;11.45;;;-6.40;99.90;;;;;;5061792;28;20037;-78
2023/02/07 07:32:29;;;;;;;23.08;11.73;;;-6.30;99.90;;;;;;5047859;28;20039;-80
2023/02/07 07:34:54;;;;;;;22.48;11.80;;;-6.10;99.90;;;;;;5057462;28;20037;-79
2023/02/07 07:37:20;;;;;;;24.15;11.82;;;-5.90;99.90;;;;;;5060813;28;20028;-80
2023/02/07 07:39:46;;;;;;;24.23;13.18;;;-5.60;99.90;;;;;;5061774;28;20024;-80
2023/02/07 07:42:12;;;;;;;27.30;13.70;;;-5.30;99.90;;;;;;5059164;28;20059;-80
2023/02/07 07:45:00;;;;;;;26.15;12.50;;;-4.90;99.90;;;;;;5044831;28;20129;-80
2023/02/07 07:47:27;;;;;;;27.25;12.88;;;-4.50;99.90;;;;;;5053459;28;20035;-81
2023/02/07 07:49:53;;;;;;;23.45;12.77;;;-4.00;99.90;;;;;;5057309;28;20156;-81
2023/02/07 07:52:20;;;;;;;25.63;12.50;;;-3.50;99.90;;;;;;5053657;28;20039;-80
2023/02/07 07:54:45;;;;;;;22.13;11.02;;;-3.30;99.90;;;;;;5051686;28;20071;-80
2023/02/07 07:57:11;;;;;;;23.40;10.70;;;-2.90;99.90;;;;;;5056945;28;20424;-80
2023/02/07 07:59:37;;;;;;;24.30;11.98;;;-2.60;99.90;;;;;;5052700;28;20025;-80
2023/02/07 08:02:03;;;;;;;23.50;12.55;;;-2.40;99.90;;;;;;5038597;28;20021;-79
2023/02/07 08:04:29;;;;;;;21.92;11.13;;;-2.10;99.90;;;;;;5080450;28;20036;-78
2023/02/07 08:06:56;;;;;;;20.23;11.65;;;-2.00;99.90;;;;;;5047046;28;20021;-78
2023/02/07 08:09:22;;;;;;;22.00;11.23;;;-1.90;99.90;;;;;;5047100;28;20051;-79
2023/02/07 08:11:47;;;;;;;21.98;11.82;;;-1.90;99.90;;;;;;5053088;28;20128;-79
2023/02/07 08:14:13;;;;;;;22.05;11.63;;;-1.80;99.90;;;;;;5057084;28;20040;-80
2023/02/07 08:16:39;;;;;;;19.83;10.93;;;-1.80;99.90;;;;;;5052574;28;20040;-80
2023/02/07 08:19:05;;;;;;;19.67;11.38;;;-1.80;99.90;;;;;;5051562;28;20025;-80
2023/02/07 08:21:31;;;;;;;24.58;11.82;;;-1.80;99.90;;;;;;5050831;28;20032;-80
2023/02/07 08:23:57;;;;;;;22.33;11.95;;;-1.90;99.90;;;;;;5049703;28;20125;-80
2023/02/07 08:26:23;;;;;;;25.88;12.30;;;-1.90;99.90;;;;;;5061515;28;20444;-80
2023/02/07 08:28:51;;;;;;;20.13;11.20;;;-1.90;99.90;;;;;;5054011;28;20033;-80
2023/02/07 08:31:17;;;;;;;21.17;10.93;;;-2.00;99.90;;;;;;5055780;28;20078;-80
2023/02/07 08:33:43;;;;;;;24.77;11.70;;;-2.10;99.90;;;;;;5051908;28;20059;-80
2023/02/07 08:36:10;;;;;;;21.42;11.25;;;-2.10;99.90;;;;;;5056418;28;20017;-80
2023/02/07 08:38:36;;;;;;;19.95;10.70;;;-2.10;99.90;;;;;;5056796;28;20025;-80
2023/02/07 08:41:03;;;;;;;25.58;11.00;;;-2.10;99.90;;;;;;5058612;28;20048;-80
2023/02/07 08:43:28;;;;;;;22.52;11.85;;;-2.20;99.90;;;;;;5054063;28;20025;-80
2023/02/07 08:45:54;;;;;;;20.95;10.38;;;-2.20;99.90;;;;;;5058668;28;20043;-80
2023/02/07 08:48:20;;;;;;;20.52;11.15;;;-2.30;99.90;;;;;;5053653;28;20503;-79
2023/02/07 08:50:46;;;;;;;24.40;11.60;;;-2.30;99.90;;;;;;5063403;28;20033;-78
2023/02/07 08:53:11;;;;;;;19.73;10.63;;;-2.40;99.90;;;;;;5054016;28;20040;-78
2023/02/07 08:55:40;;;;;;;20.45;10.63;;;-2.40;99.90;;;;;;5017228;28;20579;-78
2023/02/07 08:58:06;;;;;;;21.40;10.95;;;-2.40;99.90;;;;;;5051256;28;20017;-78
2023/02/07 09:00:34;;;;;;;20.23;11.10;;;-2.40;99.90;;;;;;5049767;28;20393;-78
2023/02/07 09:03:01;;;;;;;20.42;11.60;;;-2.30;99.90;;;;;;5055533;28;20025;-78
2023/02/07 09:05:27;;;;;;;26.67;12.07;;;-2.20;99.90;;;;;;5052851;28;20231;-80
2023/02/07 09:07:53;;;;;;;21.58;11.73;;;-2.10;99.90;;;;;;5059234;28;20557;-80
2023/02/07 09:10:19;;;;;;;21.85;12.02;;;-2.00;99.90;;;;;;5068316;28;20033;-79
2023/02/07 09:12:44;;;;;;;20.98;11.60;;;-2.00;99.90;;;;;;5067463;28;20481;-79
2023/02/07 09:15:10;;;;;;;20.25;10.32;;;-1.90;99.90;;;;;;5068536;28;20031;-78
2023/02/07 09:17:36;;;;;;;18.05;10.98;;;-2.00;99.90;;;;;;5071214;28;20048;-78
2023/02/07 09:20:03;;;;;;;21.58;11.95;;;-2.10;99.90;;;;;;5056264;28;20033;-78
2023/02/07 09:22:30;;;;;;;21.63;11.43;;;-2.10;99.90;;;;;;5053374;28;20025;-78
2023/02/07 09:24:56;;;;;;;18.65;11.02;;;-2.00;99.90;;;;;;5052017;28;20029;-78
2023/02/07 09:27:22;;;;;;;17.67;9.45;;;-2.00;99.90;;;;;;5057965;28;20493;-77
2023/02/07 09:29:47;;;;;;;22.15;11.23;;;-2.00;99.90;;;;;;5052272;28;20035;-77
2023/02/07 09:32:13;;;;;;;22.02;12.50;;;-1.90;99.90;;;;;;5057273;28;20108;-77
2023/02/07 09:34:39;;;;;;;23.48;12.40;;;-1.90;99.90;;;;;;5055834;28;20520;-77
2023/02/07 09:37:05;;;;;;;24.85;13.18;;;-1.80;99.90;;;;;;5052837;28;20072;-77
2023/02/07 09:39:32;;;;;;;20.15;10.30;;;-1.90;99.90;;;;;;5053619;28;20445;-76
2023/02/07 09:42:20;;;;;;;18.27;9.32;;;-1.90;99.90;;;;;;5058405;28;20036;-76
2023/02/07 09:45:06;;;;;;;22.60;11.00;;;-1.90;99.90;;;;;;5051847;28;20028;-76
2023/02/07 09:47:35;;;;;;;24.35;11.07;;;-1.90;99.90;;;;;;5058492;28;20094;-76
2023/02/07 09:50:26;;;;;;;19.63;11.20;;;-1.90;99.90;;;;;;5052872;28;20142;-76
2023/02/07 09:52:57;;;;;;;19.63;10.30;;;-1.90;99.90;;;;;;5056464;28;20492;-77
2023/02/07 09:55:26;;;;;;;17.33;9.95;;;-1.90;99.90;;;;;;5054584;28;20032;-77
2023/02/07 09:58:01;;;;;;;19.10;10.05;;;-1.80;99.90;;;;;;5058054;28;20554;-77
2023/02/07 10:00:38;;;;;;;19.90;10.47;;;-1.70;99.90;;;;;;5052593;28;20021;-76
2023/02/07 10:03:30;;;;;;;20.17;10.77;;;-1.60;99.90;;;;;;5051014;28;20282;-76
2023/02/07 10:06:00;;;;;;;20.45;10.50;;;-1.60;99.90;;;;;;5057618;28;20179;-76
2023/02/07 10:08:26;;;;;;;19.50;10.60;;;-1.70;99.90;;;;;;5047132;28;20067;-76
2023/02/07 10:11:11;;;;;;;19.83;10.05;;;-1.60;99.90;;;;;;5045968;28;20099;-75
2023/02/07 10:13:37;;;;;;;;;;;-1.60;99.90;;;;;;5042567;28;20053;-76
2023/02/07 10:16:06;;;;;;;15.65;7.15;;;-1.70;99.90;;;;;;5055717;28;19927;-76
2023/02/07 10:18:57;;;;;;;13.38;6.47;;;-1.60;99.90;;;;;;5055025;28;20412;-77
2023/02/07 10:21:34;;;;;;;16.48;8.00;;;-1.60;99.90;;;;;;5051732;28;20078;-76
2023/02/07 10:24:27;;;;;;;16.58;8.63;;;-1.60;99.90;;;;;;5049726;28;20647;-76
2023/02/07 10:27:10;;;;;;;16.30;8.43;;;-1.60;99.90;;;;;;5043258;28;21090;-77
2023/02/07 10:29:55;;;;;;;16.50;8.60;;;-1.60;99.90;;;;;;5042186;28;20497;-77
2023/02/07 10:32:23;;;;;;;14.48;8.63;;;-1.50;99.90;;;;;;5047050;28;20481;-78
2023/02/07 10:34:53;;;;;;;14.60;8.50;;;-1.40;99.90;;;;;;5039969;28;20033;-76
2023/02/07 10:37:25;;;;;;;19.15;9.77;;;-1.30;99.90;;;;;;5080070;28;20029;-77
2023/02/07 10:40:03;;;;;;;19.00;8.50;;;-1.30;99.90;;;;;;5044528;28;20036;-78
2023/02/07 10:42:32;;;;;;;15.05;8.40;;;-1.20;99.90;;;;;;5052160;28;20040;-75
2023/02/07 10:44:58;;;;;;;16.63;9.30;;;-1.20;99.90;;;;;;5059531;28;20037;-78
2023/02/07 10:47:25;;;;;;;16.38;9.75;;;-1.20;99.90;;;;;;5047755;28;20539;-77
2023/02/07 10:49:53;;;;;;;15.77;9.02;;;-1.10;99.90;;;;;;5051142;28;20039;-75
2023/02/07 10:52:36;;;;;;;19.60;8.52;;;-1.10;99.90;;;;;;5050176;28;20041;-76
2023/02/07 10:55:07;;;;;;;17.02;9.27;;;-1.00;99.90;;;;;;5054786;28;20021;-76
2023/02/07 10:57:33;;;;;;;18.52;9.15;;;-1.10;99.90;;;;;;5052180;28;20453;-77
2023/02/07 11:00:23;;;;;;;15.15;8.35;;;-1.00;99.90;;;;;;5040467;28;20031;-76
2023/02/07 11:02:51;;;;;;;16.27;8.10;;;-0.90;99.90;;;;;;5044350;28;20768;-76
2023/02/07 11:05:17;;;;;;;17.85;8.35;;;-0.90;99.90;;;;;;5041139;28;20194;-76
2023/02/07 11:08:25;;;;;;;14.32;8.30;;;-0.90;99.90;;;;;;5052028;28;20045;-77
2023/02/07 11:10:57;;;;;;;14.25;7.95;;;-0.90;99.90;;;;;;5053699;28;20037;-76
2023/02/07 11:13:26;;;;;;;13.80;8.80;;;-0.90;99.90;;;;;;5036561;28;20026;-76
2023/02/07 11:16:12;;;;;;;15.40;7.72;;;-0.80;99.90;;;;;;5037572;28;20049;-76
2023/02/07 11:18:44;;;;;;;14.25;7.82;;;-0.80;99.90;;;;;;5037423;28;20426;-76
2023/02/07 11:21:29;;;;;;;14.30;7.10;;;-0.70;99.90;;;;;;5040126;28;20493;-76
2023/02/07 11:24:18;;;;;;;13.30;7.60;;;-0.70;99.90;;;;;;5037937;28;20061;-76
2023/02/07 11:27:01;;;;;;;16.73;7.32;;;-0.60;99.90;;;;;;5039591;28;20041;-76
2023/02/07 11:29:29;;;;;;;13.68;8.48;;;-0.50;99.90;;;;;;5042636;28;20126;-76
2023/02/07 11:31:58;;;;;;;14.88;7.55;;;-0.40;99.90;;;;;;5036514;28;20410;-76
2023/02/07 11:34:50;;;;;;;11.75;7.45;;;-0.40;99.90;;;;;;5035503;28;20128;-76
2023/02/07 11:37:15;;;;;;;13.80;7.82;;;-0.30;99.90;;;;;;5041769;28;20381;-76
2023/02/07 11:39:43;;;;;;;12.68;6.78;;;-0.20;99.90;;;;;;5038312;28;20112;-76
2023/02/07 11:42:24;;;;;;;15.40;8.73;;;-0.20;99.90;;;;;;5040831;28;20029;-76
2023/02/07 11:44:51;;;;;;;12.90;7.35;;;-0.20;99.90;;;;;;5041121;28;20017;-76
2023/02/07 11:47:29;;;;;;;13.73;8.68;;;-0.20;99.90;;;;;;5041894;28;20120;-76
2023/02/07 11:50:02;;;;;;;15.85;9.10;;;0.10;99.90;;;;;;5038633;28;20112;-76
2023/02/07 11:52:31;;;;;;;14.13;8.15;;;0.20;99.90;;;;;;5040798;28;20541;-77
2023/02/07 11:55:00;;;;;;;16.55;8.60;;;0.30;99.90;;;;;;5049243;28;20881;-76
2023/02/07 11:57:30;;;;;;;14.23;7.40;;;0.30;99.90;;;;;;5041215;28;20025;-77
2023/02/07 12:00:16;;;;;;;18.10;9.48;;;0.40;99.90;;;;;;5041994;28;20087;-76
2023/02/07 12:02:50;;;;;;;12.70;7.70;;;0.40;99.90;;;;;;5041177;28;20041;-76
2023/02/07 12:05:18;;;;;;;16.42;8.05;;;0.40;99.90;;;;;;5043426;28;20034;-77
2023/02/07 12:07:53;;;;;;;12.95;7.45;;;0.40;99.90;;;;;;5042673;28;20056;-77
2023/02/07 12:10:31;;;;;;;15.13;8.32;;;0.40;99.90;;;;;;5047298;28;20048;-76
2023/02/07 12:13:14;;;;;;;13.13;7.18;;;0.50;99.90;;;;;;5038870;28;20029;-77
2023/02/07 12:15:43;;;;;;;12.55;6.72;;;0.60;99.90;;;;;;5029764;28;20087;-77
2023/02/07 12:18:09;;;;;;;11.20;6.35;;;0.60;99.90;;;;;;5042851;28;20381;-76
2023/02/07 12:20:44;;;;;;;12.75;6.93;;;0.70;99.90;;;;;;5044645;28;20017;-76
2023/02/07 12:23:33;;;;;;;12.35;6.63;;;0.60;99.90;;;;;;5047402;28;20025;-76
2023/02/07 12:26:12;;;;;;;13.48;6.90;;;0.60;99.90;;;;;;5052855;28;20086;-76
2023/02/07 12:29:08;;;;;;;15.52;6.93;;;0.70;99.90;;;;;;5038664;28;20025;-76
2023/02/07 12:31:40;;;;;;;10.75;5.72;;;0.70;99.90;;;;;;5043741;28;20075;-76
2023/02/07 12:34:29;;;;;;;10.25;5.88;;;0.70;99.90;;;;;;5044183;28;20082;-75
2023/02/07 12:37:17;;;;;;;11.70;6.40;;;0.80;99.90;;;;;;5041781;28;20512;-76
2023/02/07 12:39:52;;;;;;;13.77;7.03;;;0.80;99.90;;;;;;5045803;28;20607;-76
2023/02/07 12:42:24;;;;;;;;;;;0.80;99.90;;;;;;5044776;28;20065;-76
2023/02/07 12:45:01;;;;;;;12.23;6.22;;;0.90;99.90;;;;;;5041817;28;19908;-76